Aeroporto :
LOGIN :

Iscrizione | Disclaimer

   EN    FR    IT 

 










Sommario :    VFR   VFR Marginale   IFR   IFR Intensivo   IFR Molto Intensivo
Visibilità : 
Base nubi : 
>= 8 km
>= 3000ft
5 / 8 km
1000 / 3000 ft
1500m / 5 km
500 / 1000 ft
800 / 1500m
200 / 500 ft
< 800m
< 200 ft
Simboli :   Temporali  Nebbia  Neve Forte  Precipitazioni Forti  Vento > 20 kt
SIGMETs :   Varie  Temporali  Ghiacco  Turbolenza  Onda orograficha  Ceneri Vulcaniche






- Altitudine del aeroporto : 142 ft
- Codice IATA : FLR


LIRQ - Firenze Amerigo Vespucci

ULTIMO METAR :
  • 221450Z 26004KT 220V310 CAVOK 18/05 Q1030

METARs OBSOLETI :
  • 221420Z 28006KT 250V310 CAVOK 18/04 Q1030
  • 221350Z 35004KT 280V020 CAVOK 18/05 Q1030
  • 221320Z 02004KT 320V060 CAVOK 17/04 Q1030
  • 221250Z VRB02KT CAVOK 18/05 Q1030
  • 221220Z VRB02KT CAVOK 17/04 Q1031

TAF TAF LIRQ
Valido dal 22 a 12 ore il 23 a 12 ore UTC


221100Z 2212/2312 VRB05KT 9999 FEW030
BECMG 2222/2224 4000 BR
TEMPO 2301/2307 0800 BCFG
BECMG 2308/2310 7000



MetMap, La meteo Aeronautica in un colpo d'occhio ! - Copyright ORBIFLY Dicembre 2007 - Disclaimer

ORBIFLY MET'MAP TEAM :

Programmazione e sviluppo : Alexandra Zaïnal
Concezione : Baudouin d'Aumeries
Aiuto per la programmazione : Marc-Olivier Méhu
Supporto tecnico e logistico : Manuel Goepfert
Aiuto per la traduzione : Arnaldo La Scala

Contatto : metmap@orbifly.com




FONTI E CREDITI :

   NOAA